TSU148 KELP-KAFW
Flight info
| Callsign | TSU148 |
|---|---|
| Flight time | 1h 5m |
| Altitude | 35000 |
| Route | TDOWN3 SFL INK GEEKY LIKES4 |
| Aircraft | R722/M-SDFGRWY/S |
Departure
| Time | 2026-05-06 21:39 |
|---|---|
| Airport | El Paso International Airport (KELP) |
Arrival
| Time | 2026-05-06 22:45 |
|---|---|
| Airport | Perot Field/Fort Worth Alliance Airport (KAFW) |
| Time | Latitude | Longitude | Altitude | Speed | Heading |
|---|---|---|---|---|---|
| 2026-05-06 20:36 | 31.81995 | -106.36560 | 3950 ft | 0 kts | 140° |
| 2026-05-06 21:27 | 31.82006 | -106.36571 | 3950 ft | 2 kts | 140° |
| 2026-05-06 21:27 | 31.82019 | -106.36584 | 3950 ft | 2 kts | 140° |
| 2026-05-06 21:28 | 31.82032 | -106.36596 | 3950 ft | 2 kts | 141° |
| 2026-05-06 21:28 | 31.82045 | -106.36609 | 3950 ft | 2 kts | 141° |
| 2026-05-06 21:28 | 31.82058 | -106.36620 | 3950 ft | 2 kts | 151° |
| 2026-05-06 21:28 | 31.82074 | -106.36622 | 3950 ft | 2 kts | 200° |
| 2026-05-06 21:29 | 31.82087 | -106.36610 | 3950 ft | 2 kts | 229° |
| 2026-05-06 21:29 | 31.82092 | -106.36602 | 3950 ft | 0 kts | 230° |
| 2026-05-06 21:33 | 31.82092 | -106.36603 | 3950 ft | 0 kts | 231° |
| 2026-05-06 21:33 | 31.82090 | -106.36605 | 3950 ft | 2 kts | 231° |
| 2026-05-06 21:34 | 31.82068 | -106.36635 | 3950 ft | 7 kts | 231° |
| 2026-05-06 21:34 | 31.82029 | -106.36690 | 3950 ft | 10 kts | 230° |
| 2026-05-06 21:34 | 31.81982 | -106.36756 | 3950 ft | 11 kts | 231° |
| 2026-05-06 21:34 | 31.81932 | -106.36826 | 3950 ft | 12 kts | 231° |
| 2026-05-06 21:35 | 31.81936 | -106.36898 | 3950 ft | 9 kts | 315° |
| 2026-05-06 21:35 | 31.81978 | -106.36941 | 3950 ft | 9 kts | 320° |
| 2026-05-06 21:35 | 31.82028 | -106.36974 | 3950 ft | 7 kts | 4° |
| 2026-05-06 21:35 | 31.82069 | -106.36944 | 3950 ft | 7 kts | 47° |
| 2026-05-06 21:36 | 31.82112 | -106.36906 | 3950 ft | 8 kts | 9° |
| 2026-05-06 21:36 | 31.82162 | -106.36931 | 3950 ft | 8 kts | 324° |
| 2026-05-06 21:36 | 31.82193 | -106.36958 | 3950 ft | 8 kts | 322° |
| 2026-05-06 21:36 | 31.82255 | -106.37018 | 3949 ft | 8 kts | 309° |
| 2026-05-06 21:37 | 31.82259 | -106.37054 | 3950 ft | 6 kts | 242° |
| 2026-05-06 21:37 | 31.82251 | -106.37065 | 3950 ft | 0 kts | 229° |
| 2026-05-06 21:38 | 31.82246 | -106.37072 | 3950 ft | 14 kts | 229° |
| 2026-05-06 21:39 | 31.82002 | -106.37416 | 3950 ft | 92 kts | 230° |
| 2026-05-06 21:39 | 31.81454 | -106.38174 | 3951 ft | 149 kts | 230° |
| 2026-05-06 21:39 | 31.80689 | -106.39201 | 4137 ft | 179 kts | 233° |
| 2026-05-06 21:39 | 31.79855 | -106.40319 | 4948 ft | 180 kts | 231° |
| 2026-05-06 21:40 | 31.78784 | -106.41114 | 5593 ft | 192 kts | 200° |
| 2026-05-06 21:40 | 31.77420 | -106.41191 | 6278 ft | 207 kts | 172° |
| 2026-05-06 21:40 | 31.76076 | -106.40464 | 7014 ft | 216 kts | 144° |
| 2026-05-06 21:40 | 31.75059 | -106.39107 | 7698 ft | 227 kts | 127° |
| 2026-05-06 21:41 | 31.74220 | -106.37432 | 8101 ft | 254 kts | 120° |
| 2026-05-06 21:41 | 31.73340 | -106.35439 | 8406 ft | 289 kts | 118° |
| 2026-05-06 21:41 | 31.72484 | -106.33352 | 9703 ft | 281 kts | 115° |
| 2026-05-06 21:41 | 31.71888 | -106.31066 | 10317 ft | 310 kts | 101° |
| 2026-05-06 21:42 | 31.71709 | -106.28368 | 10508 ft | 341 kts | 89° |
| 2026-05-06 21:42 | 31.71845 | -106.25574 | 11362 ft | 341 kts | 86° |
| 2026-05-06 21:42 | 31.72020 | -106.22737 | 12069 ft | 350 kts | 83° |
| 2026-05-06 21:42 | 31.72580 | -106.19954 | 12654 ft | 362 kts | 69° |
| 2026-05-06 21:43 | 31.73659 | -106.17149 | 12916 ft | 384 kts | 60° |
| 2026-05-06 21:43 | 31.74936 | -106.14287 | 13101 ft | 406 kts | 60° |
| 2026-05-06 21:43 | 31.76214 | -106.11342 | 14044 ft | 400 kts | 62° |
| 2026-05-06 21:43 | 31.77442 | -106.08429 | 15162 ft | 394 kts | 62° |
| 2026-05-06 21:44 | 31.78547 | -106.05423 | 15422 ft | 414 kts | 70° |
| 2026-05-06 21:44 | 31.79171 | -106.02058 | 15874 ft | 426 kts | 86° |
| 2026-05-06 21:44 | 31.79256 | -105.98561 | 16594 ft | 427 kts | 91° |
| 2026-05-06 21:44 | 31.79241 | -105.95038 | 17159 ft | 430 kts | 92° |
| 2026-05-06 21:45 | 31.79191 | -105.91502 | 17592 ft | 439 kts | 93° |
| 2026-05-06 21:45 | 31.79124 | -105.87919 | 18262 ft | 439 kts | 94° |
| 2026-05-06 21:45 | 31.79045 | -105.84323 | 19175 ft | 432 kts | 92° |
| 2026-05-06 21:45 | 31.79145 | -105.80784 | 19570 ft | 443 kts | 90° |
| 2026-05-06 21:46 | 31.79283 | -105.77137 | 20067 ft | 446 kts | 91° |
| 2026-05-06 21:46 | 31.79370 | -105.73469 | 20317 ft | 459 kts | 91° |
| 2026-05-06 21:46 | 31.79593 | -105.69670 | 20645 ft | 469 kts | 88° |
| 2026-05-06 21:46 | 31.79881 | -105.65957 | 22158 ft | 442 kts | 88° |
| 2026-05-06 21:47 | 31.80125 | -105.62329 | 22894 ft | 439 kts | 94° |
| 2026-05-06 21:47 | 31.79997 | -105.58772 | 23413 ft | 438 kts | 100° |
| 2026-05-06 21:47 | 31.79870 | -105.55185 | 23811 ft | 444 kts | 97° |
| 2026-05-06 21:47 | 31.79806 | -105.51500 | 24300 ft | 446 kts | 97° |
| 2026-05-06 21:48 | 31.79741 | -105.47833 | 24733 ft | 450 kts | 97° |
| 2026-05-06 21:48 | 31.79648 | -105.44180 | 25165 ft | 452 kts | 99° |
| 2026-05-06 21:48 | 31.79472 | -105.40445 | 25612 ft | 456 kts | 100° |
| 2026-05-06 21:48 | 31.79291 | -105.36738 | 26094 ft | 459 kts | 100° |
| 2026-05-06 21:49 | 31.79103 | -105.32942 | 26569 ft | 463 kts | 100° |
| 2026-05-06 21:49 | 31.78911 | -105.29141 | 27053 ft | 467 kts | 100° |
| 2026-05-06 21:49 | 31.78722 | -105.25322 | 27531 ft | 471 kts | 100° |
| 2026-05-06 21:49 | 31.78533 | -105.21470 | 28003 ft | 475 kts | 100° |
| 2026-05-06 21:50 | 31.78345 | -105.17532 | 28474 ft | 479 kts | 100° |
| 2026-05-06 21:50 | 31.78163 | -105.13588 | 28948 ft | 483 kts | 100° |
| 2026-05-06 21:50 | 31.77981 | -105.09581 | 29415 ft | 487 kts | 100° |
| 2026-05-06 21:50 | 31.77804 | -105.05606 | 29878 ft | 490 kts | 100° |
| 2026-05-06 21:51 | 31.77630 | -105.01602 | 30264 ft | 494 kts | 100° |
| 2026-05-06 21:51 | 31.77464 | -104.97629 | 30651 ft | 497 kts | 100° |
| 2026-05-06 21:51 | 31.77296 | -104.93532 | 31048 ft | 500 kts | 100° |
| 2026-05-06 21:51 | 31.77144 | -104.89601 | 31414 ft | 503 kts | 100° |
| 2026-05-06 21:52 | 31.76984 | -104.85443 | 31708 ft | 507 kts | 100° |
| 2026-05-06 21:52 | 31.76836 | -104.81318 | 32029 ft | 510 kts | 99° |
| 2026-05-06 21:52 | 31.76916 | -104.77018 | 32360 ft | 519 kts | 91° |
| 2026-05-06 21:52 | 31.77300 | -104.72794 | 32668 ft | 524 kts | 89° |
| 2026-05-06 21:53 | 31.77801 | -104.68490 | 32918 ft | 528 kts | 88° |
| 2026-05-06 21:53 | 31.78231 | -104.64217 | 33190 ft | 528 kts | 91° |
| 2026-05-06 21:53 | 31.78452 | -104.59877 | 33484 ft | 528 kts | 94° |
| 2026-05-06 21:53 | 31.78657 | -104.55569 | 33743 ft | 532 kts | 92° |
| 2026-05-06 21:54 | 31.79017 | -104.51199 | 33997 ft | 537 kts | 90° |
| 2026-05-06 21:54 | 31.79415 | -104.46815 | 34237 ft | 538 kts | 91° |
| 2026-05-06 21:54 | 31.79705 | -104.42461 | 34485 ft | 538 kts | 93° |
| 2026-05-06 21:54 | 31.79951 | -104.38032 | 34706 ft | 541 kts | 92° |
| 2026-05-06 21:55 | 31.80267 | -104.33580 | 34839 ft | 548 kts | 91° |
| 2026-05-06 21:55 | 31.80628 | -104.29068 | 34843 ft | 556 kts | 91° |
| 2026-05-06 21:55 | 31.81233 | -104.20022 | 34844 ft | 559 kts | 92° |
| 2026-05-06 21:56 | 31.81762 | -104.12386 | 34844 ft | 562 kts | 91° |
| 2026-05-06 21:56 | 31.82394 | -104.03181 | 34839 ft | 565 kts | 92° |
| 2026-05-06 21:57 | 31.83012 | -103.93898 | 34833 ft | 569 kts | 91° |
| 2026-05-06 21:57 | 31.83640 | -103.84566 | 34831 ft | 572 kts | 92° |
| 2026-05-06 21:58 | 31.84246 | -103.75264 | 34829 ft | 575 kts | 91° |
| 2026-05-06 21:58 | 31.84864 | -103.65850 | 34827 ft | 577 kts | 91° |
| 2026-05-06 21:59 | 31.85470 | -103.56364 | 34833 ft | 580 kts | 91° |
| 2026-05-06 21:59 | 31.86079 | -103.46856 | 34832 ft | 582 kts | 91° |
| 2026-05-06 22:00 | 31.86671 | -103.37360 | 34838 ft | 584 kts | 91° |
| 2026-05-06 22:00 | 31.87271 | -103.27750 | 34840 ft | 586 kts | 91° |
| 2026-05-06 22:01 | 31.88154 | -103.18195 | 34844 ft | 591 kts | 85° |
| 2026-05-06 22:01 | 31.89686 | -103.08640 | 34867 ft | 592 kts | 85° |
| 2026-05-06 22:02 | 31.90773 | -102.99054 | 34846 ft | 592 kts | 86° |
| 2026-05-06 22:02 | 31.92172 | -102.89418 | 34849 ft | 595 kts | 85° |
| 2026-05-06 22:03 | 31.93345 | -102.79805 | 34856 ft | 595 kts | 87° |
| 2026-05-06 22:03 | 31.94660 | -102.70120 | 34899 ft | 597 kts | 85° |
| 2026-05-06 22:04 | 31.95874 | -102.60490 | 34941 ft | 596 kts | 87° |
| 2026-05-06 22:04 | 31.97136 | -102.50799 | 34975 ft | 597 kts | 86° |
| 2026-05-06 22:05 | 31.98362 | -102.41156 | 34989 ft | 596 kts | 86° |
| 2026-05-06 22:05 | 31.99586 | -102.31525 | 34986 ft | 596 kts | 86° |
| 2026-05-06 22:06 | 32.00809 | -102.21848 | 34981 ft | 594 kts | 86° |
| 2026-05-06 22:06 | 32.02011 | -102.12237 | 34984 ft | 594 kts | 86° |
| 2026-05-06 22:07 | 32.03218 | -102.02593 | 34987 ft | 594 kts | 86° |
| 2026-05-06 22:07 | 32.04400 | -101.93003 | 34970 ft | 593 kts | 86° |
| 2026-05-06 22:08 | 32.05595 | -101.83333 | 34944 ft | 593 kts | 86° |
| 2026-05-06 22:08 | 32.06762 | -101.73743 | 34942 ft | 593 kts | 86° |
| 2026-05-06 22:09 | 32.07938 | -101.64103 | 34966 ft | 592 kts | 86° |
| 2026-05-06 22:09 | 32.09092 | -101.54506 | 34988 ft | 593 kts | 86° |
| 2026-05-06 22:10 | 32.10249 | -101.44882 | 34988 ft | 593 kts | 86° |
| 2026-05-06 22:10 | 32.11399 | -101.35210 | 34975 ft | 594 kts | 86° |
| 2026-05-06 22:11 | 32.12540 | -101.25586 | 34958 ft | 594 kts | 87° |
| 2026-05-06 22:11 | 32.13679 | -101.15880 | 34938 ft | 594 kts | 87° |
| 2026-05-06 22:12 | 32.14812 | -101.06193 | 34925 ft | 595 kts | 87° |
| 2026-05-06 22:12 | 32.15931 | -100.96526 | 34932 ft | 595 kts | 87° |
| 2026-05-06 22:13 | 32.17043 | -100.86873 | 34923 ft | 595 kts | 87° |
| 2026-05-06 22:13 | 32.18150 | -100.77205 | 34929 ft | 596 kts | 87° |
| 2026-05-06 22:14 | 32.19251 | -100.67498 | 34948 ft | 596 kts | 87° |
| 2026-05-06 22:14 | 32.20351 | -100.57766 | 34966 ft | 596 kts | 87° |
| 2026-05-06 22:15 | 32.21439 | -100.48034 | 34975 ft | 596 kts | 87° |
| 2026-05-06 22:15 | 32.22519 | -100.38331 | 34974 ft | 597 kts | 87° |
| 2026-05-06 22:16 | 32.23594 | -100.28593 | 34968 ft | 597 kts | 87° |
| 2026-05-06 22:16 | 32.24659 | -100.18884 | 34955 ft | 597 kts | 87° |
| 2026-05-06 22:17 | 32.25724 | -100.09091 | 34957 ft | 597 kts | 87° |
| 2026-05-06 22:17 | 32.26781 | -99.99315 | 34970 ft | 597 kts | 87° |
| 2026-05-06 22:18 | 32.27827 | -99.89551 | 34975 ft | 597 kts | 87° |
| 2026-05-06 22:18 | 32.28769 | -99.79772 | 34977 ft | 596 kts | 89° |
| 2026-05-06 22:19 | 32.29619 | -99.70046 | 34991 ft | 597 kts | 88° |
| 2026-05-06 22:19 | 32.30543 | -99.60303 | 34988 ft | 596 kts | 89° |
| 2026-05-06 22:20 | 32.31242 | -99.52150 | 34986 ft | 596 kts | 88° |
| 2026-05-06 22:20 | 32.32286 | -99.40808 | 34981 ft | 593 kts | 88° |
| 2026-05-06 22:21 | 32.32981 | -99.32703 | 34967 ft | 588 kts | 88° |
| 2026-05-06 22:21 | 32.33832 | -99.23260 | 35006 ft | 558 kts | 88° |
| 2026-05-06 22:22 | 32.34229 | -99.18801 | 34799 ft | 537 kts | 89° |
| 2026-05-06 22:22 | 32.34627 | -99.14411 | 34483 ft | 522 kts | 88° |
| 2026-05-06 22:22 | 32.35006 | -99.10158 | 33612 ft | 521 kts | 89° |
| 2026-05-06 22:22 | 32.35326 | -99.05849 | 32665 ft | 520 kts | 90° |
| 2026-05-06 22:23 | 32.35663 | -99.01573 | 31843 ft | 518 kts | 88° |
| 2026-05-06 22:23 | 32.36058 | -98.97338 | 31093 ft | 514 kts | 88° |
| 2026-05-06 22:23 | 32.36453 | -98.93193 | 30476 ft | 506 kts | 88° |
| 2026-05-06 22:23 | 32.36825 | -98.89107 | 29873 ft | 497 kts | 88° |
| 2026-05-06 22:24 | 32.37188 | -98.85054 | 29191 ft | 490 kts | 88° |
| 2026-05-06 22:24 | 32.37552 | -98.81088 | 28533 ft | 483 kts | 88° |
| 2026-05-06 22:24 | 32.37916 | -98.77149 | 27882 ft | 478 kts | 88° |
| 2026-05-06 22:24 | 32.38273 | -98.73198 | 27242 ft | 475 kts | 88° |
| 2026-05-06 22:25 | 32.38621 | -98.69313 | 26625 ft | 471 kts | 87° |
| 2026-05-06 22:25 | 32.38966 | -98.65490 | 26015 ft | 468 kts | 87° |
| 2026-05-06 22:25 | 32.39310 | -98.61678 | 25434 ft | 464 kts | 87° |
| 2026-05-06 22:25 | 32.39648 | -98.57904 | 24852 ft | 460 kts | 87° |
| 2026-05-06 22:26 | 32.39984 | -98.54129 | 24280 ft | 455 kts | 87° |
| 2026-05-06 22:26 | 32.40290 | -98.50673 | 23756 ft | 451 kts | 86° |
| 2026-05-06 22:26 | 32.40623 | -98.46929 | 23119 ft | 447 kts | 86° |
| 2026-05-06 22:26 | 32.40948 | -98.43266 | 22476 ft | 442 kts | 87° |
| 2026-05-06 22:27 | 32.41263 | -98.39677 | 21841 ft | 437 kts | 87° |
| 2026-05-06 22:27 | 32.41574 | -98.36132 | 21229 ft | 432 kts | 87° |
| 2026-05-06 22:27 | 32.41886 | -98.32570 | 20602 ft | 427 kts | 87° |
| 2026-05-06 22:27 | 32.42192 | -98.29057 | 20002 ft | 422 kts | 87° |
| 2026-05-06 22:28 | 32.42490 | -98.25631 | 19421 ft | 416 kts | 88° |
| 2026-05-06 22:28 | 32.42781 | -98.22263 | 18852 ft | 411 kts | 88° |
| 2026-05-06 22:28 | 32.43072 | -98.18892 | 18277 ft | 405 kts | 88° |
| 2026-05-06 22:28 | 32.43360 | -98.15562 | 17628 ft | 400 kts | 88° |
| 2026-05-06 22:29 | 32.43639 | -98.12296 | 16983 ft | 395 kts | 88° |
| 2026-05-06 22:29 | 32.43920 | -98.09006 | 16334 ft | 390 kts | 88° |
| 2026-05-06 22:29 | 32.44190 | -98.05844 | 15724 ft | 385 kts | 87° |
| 2026-05-06 22:29 | 32.44456 | -98.02701 | 15130 ft | 380 kts | 87° |
| 2026-05-06 22:30 | 32.44716 | -97.99574 | 14539 ft | 375 kts | 87° |
| 2026-05-06 22:30 | 32.44963 | -97.96558 | 14013 ft | 363 kts | 87° |
| 2026-05-06 22:30 | 32.45206 | -97.93612 | 13496 ft | 351 kts | 87° |
| 2026-05-06 22:30 | 32.45440 | -97.90772 | 12948 ft | 341 kts | 87° |
| 2026-05-06 22:31 | 32.45665 | -97.88025 | 12422 ft | 332 kts | 87° |
| 2026-05-06 22:31 | 32.45884 | -97.85324 | 11894 ft | 325 kts | 87° |
| 2026-05-06 22:31 | 32.46099 | -97.82675 | 11383 ft | 321 kts | 86° |
| 2026-05-06 22:31 | 32.46313 | -97.80041 | 10955 ft | 316 kts | 86° |
| 2026-05-06 22:32 | 32.46521 | -97.77465 | 10527 ft | 312 kts | 86° |
| 2026-05-06 22:32 | 32.46754 | -97.74918 | 10104 ft | 308 kts | 81° |
| 2026-05-06 22:32 | 32.47443 | -97.72553 | 9658 ft | 305 kts | 62° |
| 2026-05-06 22:32 | 32.48636 | -97.70477 | 9179 ft | 301 kts | 49° |
| 2026-05-06 22:33 | 32.50025 | -97.68654 | 8737 ft | 296 kts | 44° |
| 2026-05-06 22:33 | 32.51448 | -97.66939 | 8309 ft | 293 kts | 44° |
| 2026-05-06 22:33 | 32.52825 | -97.65171 | 7871 ft | 290 kts | 47° |
| 2026-05-06 22:33 | 32.54166 | -97.63375 | 7436 ft | 288 kts | 46° |
| 2026-05-06 22:34 | 32.55509 | -97.61625 | 7009 ft | 285 kts | 45° |
| 2026-05-06 22:34 | 32.56840 | -97.59916 | 6609 ft | 282 kts | 46° |
| 2026-05-06 22:34 | 32.57719 | -97.58778 | 6351 ft | 280 kts | 46° |
| 2026-05-06 22:34 | 32.59035 | -97.57061 | 5940 ft | 277 kts | 46° |
| 2026-05-06 22:35 | 32.60320 | -97.55410 | 5623 ft | 271 kts | 46° |
| 2026-05-06 22:35 | 32.61131 | -97.54371 | 5416 ft | 268 kts | 46° |
| 2026-05-06 22:35 | 32.62226 | -97.52963 | 5144 ft | 264 kts | 46° |
| 2026-05-06 22:35 | 32.63473 | -97.51350 | 4830 ft | 261 kts | 46° |
| 2026-05-06 22:36 | 32.64682 | -97.49778 | 4522 ft | 258 kts | 46° |
| 2026-05-06 22:36 | 32.65893 | -97.48208 | 4246 ft | 254 kts | 46° |
| 2026-05-06 22:36 | 32.67061 | -97.46693 | 3982 ft | 250 kts | 46° |
| 2026-05-06 22:36 | 32.68232 | -97.45173 | 3712 ft | 245 kts | 46° |
| 2026-05-06 22:37 | 32.69366 | -97.43699 | 3447 ft | 241 kts | 46° |
| 2026-05-06 22:37 | 32.70497 | -97.42232 | 3175 ft | 237 kts | 46° |
| 2026-05-06 22:37 | 32.71588 | -97.40808 | 2904 ft | 233 kts | 46° |
| 2026-05-06 22:37 | 32.72677 | -97.39373 | 2632 ft | 231 kts | 46° |
| 2026-05-06 22:38 | 32.73732 | -97.37958 | 2386 ft | 226 kts | 46° |
| 2026-05-06 22:38 | 32.74755 | -97.36579 | 2388 ft | 211 kts | 46° |
| 2026-05-06 22:38 | 32.75697 | -97.35309 | 2381 ft | 202 kts | 46° |
| 2026-05-06 22:38 | 32.76628 | -97.34051 | 2368 ft | 198 kts | 47° |
| 2026-05-06 22:39 | 32.77510 | -97.32840 | 2398 ft | 192 kts | 46° |
| 2026-05-06 22:39 | 32.78340 | -97.31715 | 2388 ft | 190 kts | 46° |
| 2026-05-06 22:39 | 32.79192 | -97.30547 | 2377 ft | 182 kts | 47° |
| 2026-05-06 22:39 | 32.80008 | -97.29428 | 2374 ft | 176 kts | 47° |
| 2026-05-06 22:40 | 32.80801 | -97.28353 | 2369 ft | 171 kts | 40° |
| 2026-05-06 22:40 | 32.81864 | -97.27961 | 2270 ft | 163 kts | 342° |
| 2026-05-06 22:40 | 32.82830 | -97.28586 | 2379 ft | 158 kts | 340° |
| 2026-05-06 22:40 | 32.83930 | -97.28755 | 2416 ft | 169 kts | 358° |
| 2026-05-06 22:41 | 32.86269 | -97.29251 | 2392 ft | 157 kts | 351° |
| 2026-05-06 22:41 | 32.87284 | -97.29428 | 2350 ft | 141 kts | 352° |
| 2026-05-06 22:41 | 32.88261 | -97.29628 | 2370 ft | 144 kts | 351° |
| 2026-05-06 22:42 | 32.89256 | -97.29835 | 2394 ft | 142 kts | 350° |
| 2026-05-06 22:42 | 32.90170 | -97.30037 | 2305 ft | 128 kts | 353° |
| 2026-05-06 22:42 | 32.91056 | -97.30193 | 2156 ft | 133 kts | 352° |
| 2026-05-06 22:42 | 32.92024 | -97.30423 | 2049 ft | 146 kts | 350° |
| 2026-05-06 22:43 | 32.93017 | -97.30609 | 1799 ft | 142 kts | 352° |
| 2026-05-06 22:43 | 32.93961 | -97.30807 | 1522 ft | 133 kts | 352° |
| 2026-05-06 22:43 | 32.94851 | -97.31001 | 1296 ft | 126 kts | 353° |
| 2026-05-06 22:43 | 32.95721 | -97.31190 | 1198 ft | 126 kts | 353° |
| 2026-05-06 22:44 | 32.96597 | -97.31369 | 945 ft | 132 kts | 356° |
| 2026-05-06 22:44 | 32.97554 | -97.31544 | 781 ft | 139 kts | 354° |
| 2026-05-06 22:44 | 32.98428 | -97.31721 | 690 ft | 113 kts | 345° |
| 2026-05-06 22:44 | 32.99049 | -97.31881 | 688 ft | 64 kts | 358° |
| 2026-05-06 22:45 | 32.99403 | -97.31916 | 694 ft | 45 kts | 350° |
| 2026-05-06 22:45 | 32.99614 | -97.31967 | 692 ft | 18 kts | 351° |
| 2026-05-06 22:45 | 32.99736 | -97.31987 | 690 ft | 13 kts | 357° |
| 2026-05-06 22:45 | 32.99780 | -97.31935 | 694 ft | 7 kts | 81° |
| 2026-05-06 22:46 | 32.99782 | -97.31897 | 688 ft | 0 kts | 86° |
| 2026-05-06 22:46 | 32.99782 | -97.31896 | 688 ft | 1 kts | 85° |
| 2026-05-06 22:46 | 32.99784 | -97.31882 | 688 ft | 3 kts | 78° |
| 2026-05-06 22:46 | 32.99792 | -97.31843 | 693 ft | 6 kts | 77° |
| 2026-05-06 22:47 | 32.99803 | -97.31783 | 692 ft | 8 kts | 79° |
| 2026-05-06 22:47 | 32.99814 | -97.31705 | 691 ft | 10 kts | 80° |
| 2026-05-06 22:47 | 32.99828 | -97.31613 | 692 ft | 12 kts | 79° |
| 2026-05-06 22:47 | 32.99844 | -97.31506 | 694 ft | 14 kts | 80° |
| 2026-05-06 22:48 | 32.99861 | -97.31388 | 694 ft | 15 kts | 80° |
| 2026-05-06 22:48 | 32.99880 | -97.31268 | 692 ft | 15 kts | 81° |
| 2026-05-06 22:48 | 32.99834 | -97.31200 | 688 ft | 11 kts | 171° |
| 2026-05-06 22:48 | 32.99768 | -97.31187 | 689 ft | 10 kts | 171° |
| 2026-05-06 22:49 | 32.99726 | -97.31207 | 690 ft | 10 kts | 240° |
| 2026-05-06 22:49 | 32.99722 | -97.31287 | 692 ft | 8 kts | 313° |
| 2026-05-06 22:49 | 32.99773 | -97.31304 | 691 ft | 3 kts | 351° |
| 2026-05-06 22:49 | 32.99778 | -97.31305 | 691 ft | 0 kts | 351° |